createdAt,value
2022-09-24T00:02:47.555Z,99021.69
2022-09-24T00:15:44.595Z,99069.00
2022-09-24T00:18:49.428Z,99046.06
2022-09-24T00:21:56.663Z,99080.94
2022-09-24T00:25:22.165Z,99074.50
2022-09-24T00:28:27.330Z,99068.16
2022-09-24T00:31:34.132Z,99090.25
2022-09-24T00:34:38.699Z,99112.66
2022-09-24T00:37:43.325Z,99101.22
2022-09-24T00:40:48.342Z,99073.63
2022-09-24T00:43:53.468Z,99034.19
2022-09-24T00:46:58.157Z,99095.88
2022-09-24T00:50:23.620Z,99055.91
2022-09-24T00:53:33.247Z,99095.34
2022-09-24T00:56:43.911Z,99041.44
2022-09-24T00:59:48.959Z,99097.66
2022-09-24T01:02:59.893Z,99092.41
2022-09-24T01:06:04.550Z,99055.84
2022-09-24T01:09:10.114Z,99065.69
2022-09-24T01:12:41.446Z,99095.72
2022-09-24T01:15:58.796Z,99059.44
2022-09-24T01:19:24.771Z,99109.25
2022-09-24T01:22:59.321Z,99082.41
2022-09-24T01:26:06.431Z,99107.53
2022-09-24T01:29:21.951Z,99112.97
2022-09-24T01:32:43.397Z,99094.28
2022-09-24T01:35:59.741Z,99108.06
2022-09-24T01:39:08.030Z,99095.44
2022-09-24T01:42:16.247Z,99067.28
2022-09-24T01:45:22.449Z,99079.34
2022-09-24T01:48:28.289Z,99099.63
2022-09-24T01:51:41.937Z,99073.56
2022-09-24T01:54:52.604Z,99114.84
2022-09-24T01:58:29.984Z,99087.97
2022-09-24T02:01:41.785Z,99069.19
2022-09-24T02:04:53.033Z,99087.41
2022-09-24T02:08:20.444Z,99080.94
2022-09-24T02:11:28.943Z,99077.25
2022-09-24T02:14:58.591Z,99108.69
2022-09-24T02:18:08.498Z,99082.19
2022-09-24T02:21:16.408Z,99069.16
2022-09-24T02:24:31.214Z,99113.72
2022-09-24T02:27:39.007Z,99026.47
2022-09-24T02:30:50.048Z,99063.31
2022-09-24T02:34:18.776Z,99075.44
2022-09-24T02:37:25.660Z,99129.38
2022-09-24T02:40:30.801Z,99112.97
2022-09-24T02:43:37.225Z,99126.69
2022-09-24T02:46:44.193Z,99128.34
2022-09-24T02:49:48.796Z,99089.41
2022-09-24T02:52:54.051Z,99103.50
2022-09-24T02:56:01.170Z,99123.59
2022-09-24T02:59:06.235Z,99136.50
2022-09-24T03:02:11.192Z,99110.69
2022-09-24T03:05:19.059Z,99100.84
2022-09-24T03:08:25.241Z,99103.44
2022-09-24T03:11:30.190Z,99085.03
2022-09-24T03:14:37.034Z,99101.94
2022-09-24T03:17:50.460Z,99096.09
2022-09-24T03:21:05.473Z,99146.63
2022-09-24T03:24:10.453Z,99086.13
2022-09-24T03:27:16.415Z,99066.88
2022-09-24T03:30:48.378Z,99124.97
2022-09-24T03:33:55.459Z,99111.31
2022-09-24T03:36:59.930Z,99125.09
2022-09-24T03:40:07.934Z,99126.84
2022-09-24T03:43:12.554Z,99128.50
2022-09-24T03:46:20.515Z,99145.53
2022-09-24T03:49:30.793Z,99120.25
2022-09-24T03:52:35.433Z,99116.09
2022-09-24T03:55:47.930Z,99170.34
2022-09-24T03:59:01.592Z,99100.66
2022-09-24T04:02:06.089Z,99140.50
2022-09-24T04:05:10.780Z,99111.94
2022-09-24T04:08:15.435Z,99167.84
2022-09-24T04:11:19.938Z,99131.19
2022-09-24T04:14:26.131Z,99175.50
2022-09-24T04:17:33.854Z,99171.22
2022-09-24T04:20:39.941Z,99209.44
2022-09-24T04:23:44.760Z,99187.22
2022-09-24T04:26:49.226Z,99188.63
2022-09-24T04:29:56.658Z,99166.56
2022-09-24T04:33:10.256Z,99182.88
2022-09-24T04:36:15.101Z,99181.41
2022-09-24T04:39:19.859Z,99177.63
2022-09-24T04:42:27.259Z,99222.66
2022-09-24T04:45:31.620Z,99220.00
2022-09-24T04:48:39.137Z,99234.66
2022-09-24T04:51:43.951Z,99184.97
2022-09-24T04:54:48.717Z,99244.47
2022-09-24T04:58:00.077Z,99253.44
2022-09-24T05:01:07.214Z,99236.91
2022-09-24T05:04:11.990Z,99253.69
2022-09-24T05:07:16.668Z,99245.13
2022-09-24T05:10:25.470Z,99255.78
2022-09-24T05:13:39.083Z,99259.06
2022-09-24T05:16:45.304Z,99304.34
2022-09-24T05:19:49.919Z,99304.88
2022-09-24T05:22:54.552Z,99319.97
2022-09-24T05:26:17.407Z,99315.25
2022-09-24T05:29:22.102Z,99305.47
2022-09-24T05:32:27.133Z,99334.38
2022-09-24T05:35:31.775Z,99344.09
2022-09-24T05:38:40.895Z,99358.00
2022-09-24T05:41:48.873Z,99347.28
2022-09-24T05:44:57.590Z,99373.66
2022-09-24T05:48:03.977Z,99404.88
2022-09-24T05:51:10.562Z,99334.47
2022-09-24T05:54:16.564Z,99411.53
2022-09-24T05:57:22.023Z,99429.75
2022-09-24T06:00:26.695Z,99401.22
2022-09-24T06:03:34.306Z,99399.00
2022-09-24T06:06:39.105Z,99449.34
2022-09-24T06:09:43.826Z,99413.59
2022-09-24T06:12:48.374Z,99459.38
2022-09-24T06:15:53.296Z,99464.16
2022-09-24T06:19:01.085Z,99471.13
2022-09-24T06:22:05.684Z,99494.28
2022-09-24T06:25:14.524Z,99510.56
2022-09-24T06:28:19.226Z,99513.50
2022-09-24T06:31:24.060Z,99387.28
2022-09-24T06:34:29.017Z,99542.59
2022-09-24T06:37:33.371Z,99503.56
2022-09-24T06:40:38.066Z,99501.94
2022-09-24T06:43:42.994Z,99510.09
2022-09-24T06:46:48.413Z,99556.47
2022-09-24T06:49:52.927Z,99535.41
2022-09-24T06:52:58.890Z,99566.97
2022-09-24T06:56:04.477Z,99549.44
2022-09-24T06:59:09.917Z,99597.84
2022-09-24T07:02:14.867Z,99591.75
2022-09-24T07:05:36.304Z,99567.22
2022-09-24T07:08:44.550Z,99610.59
2022-09-24T07:11:49.286Z,99607.44
2022-09-24T07:14:55.111Z,99623.41
2022-09-24T07:18:03.203Z,99635.88
2022-09-24T07:21:07.731Z,99637.22
2022-09-24T07:24:12.664Z,99657.94
2022-09-24T07:27:20.334Z,99627.00
2022-09-24T07:30:26.580Z,99646.66
2022-09-24T07:33:33.319Z,99710.59
2022-09-24T07:36:37.689Z,99691.47
2022-09-24T07:39:46.516Z,99689.47
2022-09-24T07:42:51.358Z,99716.69
2022-09-24T07:45:56.519Z,99727.19
2022-09-24T07:49:04.352Z,99710.28
2022-09-24T07:52:09.076Z,99726.41
2022-09-24T07:55:18.323Z,99725.53
2022-09-24T07:58:23.001Z,99754.25
2022-09-24T08:01:30.311Z,99747.06
2022-09-24T08:04:35.077Z,99800.59
2022-09-24T08:07:41.238Z,99780.72
2022-09-24T08:10:45.577Z,99772.78
2022-09-24T08:13:50.340Z,99780.00
2022-09-24T08:16:55.207Z,99806.56
2022-09-24T08:20:04.647Z,99818.56
2022-09-24T08:23:13.954Z,99814.81
2022-09-24T08:26:21.533Z,99800.81
2022-09-24T08:29:26.008Z,99857.19
2022-09-24T08:32:30.449Z,99825.28
2022-09-24T08:35:36.161Z,99811.28
2022-09-24T08:38:41.165Z,99835.66
2022-09-24T08:42:13.150Z,99860.97
2022-09-24T08:45:37.594Z,99878.94
2022-09-24T08:48:47.709Z,99899.06
2022-09-24T08:52:19.182Z,99842.97
2022-09-24T08:55:37.226Z,99899.44
2022-09-24T08:59:08.569Z,99871.03
2022-09-24T09:02:48.903Z,99888.81
2022-09-24T09:06:06.520Z,99902.44
2022-09-24T09:09:24.532Z,99909.94
2022-09-24T09:12:55.339Z,99905.56
2022-09-24T09:16:21.982Z,99911.75
2022-09-24T09:19:36.804Z,99912.91
2022-09-24T09:22:48.508Z,99923.38
2022-09-24T09:26:02.040Z,99892.38
2022-09-24T09:29:11.241Z,99933.66
2022-09-24T09:32:41.716Z,99919.63
2022-09-24T09:35:59.406Z,99939.63
2022-09-24T09:39:30.923Z,99940.78
2022-09-24T09:42:37.547Z,99890.72
2022-09-24T09:46:26.672Z,99942.25
2022-09-24T09:49:36.787Z,99932.16
2022-09-24T09:52:43.326Z,99939.88
2022-09-24T09:56:01.006Z,99944.25
2022-09-24T09:59:20.108Z,99937.81
2022-09-24T10:02:31.071Z,99980.47
2022-09-24T10:05:39.403Z,99952.41
2022-09-24T10:08:46.462Z,99969.00
2022-09-24T10:11:50.937Z,99940.38
2022-09-24T10:15:20.227Z,100008.03
2022-09-24T10:18:37.252Z,100022.34
2022-09-24T10:21:41.926Z,99990.66
2022-09-24T10:24:46.701Z,99998.88
2022-09-24T10:27:52.580Z,99970.94
2022-09-24T10:31:04.842Z,100054.97
2022-09-24T10:34:32.253Z,100048.66
2022-09-24T10:37:36.928Z,100001.84
2022-09-24T10:40:42.607Z,100042.06
2022-09-24T10:43:58.547Z,100063.91
2022-09-24T10:47:08.988Z,99964.00
2022-09-24T10:50:55.249Z,100052.53
2022-09-24T10:54:17.743Z,100065.44
2022-09-24T10:57:40.672Z,100083.78
2022-09-24T11:01:15.764Z,100045.75
2022-09-24T11:04:45.524Z,100093.47
2022-09-24T11:08:33.755Z,100109.56
2022-09-24T11:12:20.650Z,100101.28
2022-09-24T11:15:34.239Z,100100.25
2022-09-24T11:19:07.233Z,100019.94
2022-09-24T11:22:22.552Z,100116.41
2022-09-24T11:25:30.939Z,100077.81
2022-09-24T11:29:11.383Z,100120.13
2022-09-24T11:32:45.667Z,100126.28
2022-09-24T11:36:22.020Z,100124.03
2022-09-24T11:39:47.897Z,100150.53
2022-09-24T11:43:19.005Z,100167.59
2022-09-24T11:47:01.401Z,100141.34
2022-09-24T11:50:43.743Z,100157.28
2022-09-24T11:54:08.203Z,100139.63
2022-09-24T11:57:26.426Z,100178.81
2022-09-24T12:01:17.046Z,100155.56
2022-09-24T12:04:59.423Z,100101.34
2022-09-24T12:09:09.562Z,100153.88
2022-09-24T12:12:30.992Z,100120.88
2022-09-24T12:16:10.948Z,100097.22
2022-09-24T12:20:06.919Z,100203.94
2022-09-24T12:23:18.481Z,100210.25
2022-09-24T12:26:51.447Z,100155.78
2022-09-24T12:30:42.071Z,100207.13
2022-09-24T12:34:17.830Z,100223.69
2022-09-24T12:37:43.159Z,100121.53
2022-09-24T12:41:32.122Z,100223.97
2022-09-24T12:45:02.888Z,100127.09
2022-09-24T12:48:19.646Z,100101.13
2022-09-24T12:51:56.006Z,100199.41
2022-09-24T12:55:16.188Z,100097.97
2022-09-24T12:58:48.746Z,100234.22
2022-09-24T13:02:10.146Z,100249.59
2022-09-24T13:05:24.217Z,100220.13
2022-09-24T13:08:46.115Z,100208.63
2022-09-24T13:12:18.579Z,100253.59
2022-09-24T13:15:38.173Z,100254.44
2022-09-24T13:19:12.335Z,100181.78
2022-09-24T13:23:06.979Z,100258.22
2022-09-24T13:26:37.333Z,100134.13
2022-09-24T13:30:13.706Z,100265.53
2022-09-24T13:37:29.996Z,100288.34
2022-09-24T13:40:44.682Z,100294.78
2022-09-24T13:44:14.605Z,100186.31
2022-09-24T13:47:51.452Z,100223.69
2022-09-24T13:51:35.092Z,100263.97
2022-09-24T13:55:01.389Z,100192.00
2022-09-24T13:58:35.514Z,100283.88
2022-09-24T14:02:23.199Z,100256.66
2022-09-24T14:05:50.484Z,100209.81
2022-09-24T14:09:38.133Z,100297.69
2022-09-24T14:13:19.065Z,100342.59
2022-09-24T14:16:40.465Z,100253.91
2022-09-24T14:20:04.294Z,100282.47
2022-09-24T14:23:36.076Z,100258.13
2022-09-24T14:27:21.219Z,100227.59
2022-09-24T14:30:35.947Z,100327.63
2022-09-24T14:33:47.269Z,100278.06
2022-09-24T14:37:20.440Z,100362.38
2022-09-24T14:41:03.321Z,100266.09
2022-09-24T14:44:28.839Z,100323.44
2022-09-24T14:47:50.176Z,100263.44
2022-09-24T14:51:41.720Z,100324.00
2022-09-24T14:55:16.824Z,100270.09
2022-09-24T14:58:47.868Z,100371.00
2022-09-24T15:02:35.034Z,100348.34
2022-09-24T15:05:53.466Z,100266.72
2022-09-24T15:09:21.499Z,100386.66
2022-09-24T15:12:52.078Z,100360.97
2022-09-24T15:16:53.532Z,100429.16
2022-09-24T15:20:08.062Z,100372.41
2022-09-24T15:23:22.381Z,100342.72
2022-09-24T15:26:49.842Z,100439.88
2022-09-24T15:30:00.544Z,100370.78
2022-09-24T15:33:18.417Z,100397.56
2022-09-24T15:36:47.087Z,100400.97
2022-09-24T15:39:58.900Z,100376.97
2022-09-24T15:43:25.320Z,100355.56
2022-09-24T15:46:42.188Z,100429.34
2022-09-24T15:50:26.650Z,100433.78
2022-09-24T15:53:50.280Z,100377.41
2022-09-24T15:57:28.875Z,100463.66
2022-09-24T16:00:50.940Z,100431.53
2022-09-24T16:04:18.430Z,100458.25
2022-09-24T16:07:51.418Z,100423.84
2022-09-24T16:11:17.475Z,100463.03
2022-09-24T16:14:39.160Z,100449.97
2022-09-24T16:18:16.405Z,100503.94
2022-09-24T16:22:01.257Z,100521.66
2022-09-24T16:25:49.443Z,100517.66
2022-09-24T16:28:39.947Z,100485.59
2022-09-24T16:32:19.625Z,100461.25
2022-09-24T16:35:27.937Z,100492.03
2022-09-24T16:38:41.092Z,100546.97
2022-09-24T16:41:57.067Z,100514.47
2022-09-24T16:45:19.509Z,100430.06
2022-09-24T16:48:53.776Z,100461.28
2022-09-24T16:52:26.138Z,100484.91
2022-09-24T16:55:43.941Z,100516.38
2022-09-24T16:59:04.727Z,100458.91
2022-09-24T17:02:14.031Z,100495.28
2022-09-24T17:05:26.712Z,100490.97
2022-09-24T17:09:01.911Z,100409.06
2022-09-24T17:12:39.794Z,100459.78
2022-09-24T17:15:50.751Z,100513.16
2022-09-24T17:19:30.212Z,100544.66
2022-09-24T17:23:02.567Z,100447.25
2022-09-24T17:27:32.399Z,100480.44
2022-09-24T17:30:36.568Z,100519.81
2022-09-24T17:33:59.396Z,100609.69
2022-09-24T17:37:06.075Z,100508.31
2022-09-24T17:41:15.415Z,100596.50
2022-09-24T17:44:45.428Z,100551.22
2022-09-24T17:48:26.492Z,100605.66
2022-09-24T17:51:55.916Z,100576.00
2022-09-24T17:55:12.104Z,100530.75
2022-09-24T17:58:24.731Z,100526.50
2022-09-24T18:01:44.384Z,100593.88
2022-09-24T18:05:23.552Z,100570.56
2022-09-24T18:09:05.264Z,100473.38
2022-09-24T18:12:28.548Z,100480.75
2022-09-24T18:16:13.009Z,100516.63
2022-09-24T18:19:29.998Z,100484.59
2022-09-24T18:23:19.682Z,100521.59
2022-09-24T18:27:14.251Z,100515.34
2022-09-24T18:30:49.651Z,100549.97
2022-09-24T18:37:50.219Z,100640.81
2022-09-24T18:41:26.483Z,100634.03
2022-09-24T18:44:36.771Z,100618.28
2022-09-24T18:48:06.659Z,100650.03
2022-09-24T18:51:40.773Z,100643.13
2022-09-24T18:54:49.778Z,100552.41
2022-09-24T18:58:05.670Z,100580.22
2022-09-24T19:02:09.125Z,100552.69
2022-09-24T19:05:15.101Z,100495.28
2022-09-24T19:08:37.534Z,100526.84
2022-09-24T19:12:01.141Z,100547.78
2022-09-24T19:15:14.100Z,100673.09
2022-09-24T19:22:16.290Z,100655.63
2022-09-24T19:25:48.361Z,100518.63
2022-09-24T19:29:05.636Z,100569.34
2022-09-24T19:32:16.826Z,100578.06
2022-09-24T19:35:32.263Z,100673.47
2022-09-24T19:39:08.605Z,100614.28
2022-09-24T19:42:27.077Z,100542.75
2022-09-24T19:45:55.855Z,100598.72
2022-09-24T19:52:32.722Z,100624.59
2022-09-24T19:55:52.483Z,100580.94
2022-09-24T19:59:30.247Z,100703.41
2022-09-24T20:03:08.433Z,100553.19
2022-09-24T20:06:46.266Z,100617.91
2022-09-24T20:10:05.995Z,100661.00
2022-09-24T20:13:17.937Z,100671.78
2022-09-24T20:16:36.418Z,100622.97
2022-09-24T20:20:05.709Z,100694.94
2022-09-24T20:24:11.582Z,100722.75
2022-09-24T20:28:38.134Z,100612.66
2022-09-24T20:32:05.205Z,100725.56
2022-09-24T20:35:38.702Z,100613.53
2022-09-24T20:39:01.173Z,100667.88
2022-09-24T20:43:06.016Z,100590.94
2022-09-24T20:47:53.100Z,100763.34
2022-09-24T20:55:08.690Z,100726.06
2022-09-24T20:59:16.385Z,100735.56
2022-09-24T21:03:20.303Z,100698.09
2022-09-24T21:06:44.113Z,100746.22
2022-09-24T21:10:12.554Z,100659.66
2022-09-24T21:13:18.959Z,100685.88
2022-09-24T21:16:36.915Z,100681.38
2022-09-24T21:19:41.542Z,100771.53
2022-09-24T21:22:56.608Z,100740.84
2022-09-24T21:30:13.151Z,100758.94
2022-09-24T21:34:24.582Z,100642.66
2022-09-24T21:38:01.751Z,100712.84
2022-09-24T21:41:36.024Z,100758.84
2022-09-24T21:44:56.949Z,100735.78
2022-09-24T21:48:27.529Z,100729.19
2022-09-24T21:51:57.545Z,100784.97
2022-09-24T21:55:18.556Z,100728.25
2022-09-24T21:58:26.254Z,100702.06
2022-09-24T22:01:51.174Z,100830.09
2022-09-24T22:05:02.436Z,100748.34
2022-09-24T22:10:24.341Z,100724.44
2022-09-24T22:16:27.044Z,100688.59
2022-09-24T22:23:26.647Z,100748.81
2022-09-24T22:26:52.097Z,100736.81
2022-09-24T22:30:12.671Z,100767.59
2022-09-24T22:34:43.043Z,100725.00
2022-09-24T22:38:12.000Z,100781.09
2022-09-24T22:43:00.500Z,100743.09
2022-09-24T22:45:33.869Z,100740.22
2022-09-24T22:48:50.785Z,100765.78
2022-09-24T22:52:02.566Z,100753.09
2022-09-24T23:00:01.852Z,100827.41
2022-09-24T23:02:39.320Z,100775.34
2022-09-24T23:05:51.039Z,100799.75
2022-09-24T23:09:00.094Z,100813.84
2022-09-24T23:12:33.487Z,100834.41
2022-09-24T23:15:48.893Z,100750.16
2022-09-24T23:19:30.138Z,100722.19
2022-09-24T23:22:39.627Z,100797.28
2022-09-24T23:25:44.413Z,100749.47
2022-09-24T23:28:57.507Z,100798.09
2022-09-24T23:32:10.392Z,100785.88
2022-09-24T23:35:14.894Z,100802.22
2022-09-24T23:38:19.364Z,100827.56
2022-09-24T23:41:33.132Z,100825.66
2022-09-24T23:44:46.137Z,100829.91
2022-09-24T23:47:53.382Z,100787.47
2022-09-24T23:51:04.224Z,100822.78
2022-09-24T23:54:15.728Z,100853.50
2022-09-24T23:57:22.899Z,100846.94
